Ana Sayfa
METAR-TAF:

METAR-TAF

Havaalanları :

York Municipal Airport

York, Nebraska, Amerika Birleşik Devletleri

Enlem: 40-53-48N, Boylam: 097-37-22W, yükseklik: 509 m

Güncel hava durumu gözlemi

Rapor saat 05:55 UTC de 28 dakika önce yapıldı.
Rüzgar batıdan 8 kt
Sıcaklık 13°C
Nem 82%
Basınç 1011 hPa
Görüş mesafesi: 16.1 km
Açık gökyüzü

METAR: KJYR 270555Z AUTO 28008KT 10SM CLR 13/10 A2984 RMK AO2

Saat: 01:23 (06:23 UTC)


TAF: eksik

4.000'den fazla havaalanı için hava durumu gözlemleri ve tahminleri (METAR ve TAF raporları).

Kullanılabilir istasyonlar harita üzerinde sarı ve kırmızı noktalarla gösterilir.

İstasyonun adını görmek için fareyi noktanın üzerinde gezdirin.

Sonrasında hava gözlem ve tahminlerini görmek için tıklayın.

Haritayı değiştirmek için: yaklaştırmak için siyah artı işaretli yeşil düğmeye ve uzaklaştırmak için de eksi işaretli düğmeye hızla tıklayın; bitişik haritalar için yeşil okları kullanın.


METAR-TAF: